createdAt,value
2023-05-20T00:00:53.683Z,0.00
2023-05-20T00:01:53.669Z,0.00
2023-05-20T00:02:53.773Z,0.00
2023-05-20T00:03:53.832Z,0.00
2023-05-20T00:04:53.999Z,0.00
2023-05-20T00:05:53.659Z,0.00
2023-05-20T00:06:53.749Z,0.00
2023-05-20T00:07:53.618Z,0.00
2023-05-20T00:08:53.632Z,0.00
2023-05-20T00:09:53.608Z,0.00
2023-05-20T00:10:53.607Z,0.00
2023-05-20T00:11:53.598Z,0.00
2023-05-20T00:12:53.603Z,0.00
2023-05-20T00:13:53.595Z,0.00
2023-05-20T00:14:54.621Z,0.00
2023-05-20T00:15:54.575Z,0.00
2023-05-20T00:16:53.975Z,0.00
2023-05-20T00:17:53.581Z,0.00
2023-05-20T00:18:53.574Z,0.00
2023-05-20T00:19:53.530Z,0.00
2023-05-20T00:21:42.918Z,0.00
2023-05-20T00:22:42.924Z,0.00
2023-05-20T00:23:42.919Z,0.00
2023-05-20T00:24:42.897Z,0.00
2023-05-20T00:25:43.991Z,0.00
2023-05-20T00:26:43.988Z,0.00
2023-05-20T00:27:43.972Z,0.00
2023-05-20T00:28:43.980Z,0.00
2023-05-20T00:29:43.962Z,0.00
2023-05-20T00:30:43.941Z,0.00
2023-05-20T00:31:44.020Z,0.00
2023-05-20T00:32:43.989Z,0.00
2023-05-20T00:33:43.923Z,0.00
2023-05-20T00:34:43.908Z,0.00
2023-05-20T00:35:43.909Z,0.00
2023-05-20T00:36:43.895Z,0.00
2023-05-20T00:37:43.907Z,0.00
2023-05-20T00:38:43.916Z,0.00
2023-05-20T00:39:43.902Z,0.00
2023-05-20T00:40:43.881Z,0.00
2023-05-20T00:41:43.865Z,0.00
2023-05-20T00:42:43.897Z,0.00
2023-05-20T00:43:43.841Z,0.00
2023-05-20T00:44:43.911Z,0.00
2023-05-20T00:45:43.832Z,0.00
2023-05-20T00:46:43.826Z,0.00
2023-05-20T00:47:43.864Z,0.00
2023-05-20T00:48:43.821Z,0.00
2023-05-20T00:49:43.800Z,0.00
2023-05-20T00:50:43.779Z,0.00
2023-05-20T00:51:43.789Z,0.00
2023-05-20T00:52:43.796Z,0.00
2023-05-20T00:53:43.771Z,0.00
2023-05-20T00:54:43.755Z,0.00
2023-05-20T00:55:43.758Z,0.00
2023-05-20T00:56:43.741Z,0.00
2023-05-20T00:57:43.746Z,0.00
2023-05-20T00:58:43.791Z,0.00
2023-05-20T00:59:44.912Z,0.00
2023-05-20T01:00:44.739Z,0.00
2023-05-20T01:01:44.347Z,0.00
2023-05-20T01:02:43.784Z,0.00
2023-05-20T01:03:43.721Z,0.00
2023-05-20T01:04:43.693Z,0.00
2023-05-20T01:05:43.709Z,0.00
2023-05-20T01:06:43.676Z,0.00
2023-05-20T01:07:43.655Z,0.00
2023-05-20T01:08:44.456Z,0.00
2023-05-20T01:09:43.632Z,0.00
2023-05-20T01:10:43.620Z,0.00
2023-05-20T01:11:43.633Z,0.00
2023-05-20T01:12:43.613Z,0.00
2023-05-20T01:13:43.619Z,0.00
2023-05-20T01:14:43.599Z,0.00
2023-05-20T01:15:43.629Z,0.00
2023-05-20T01:16:43.577Z,0.00
2023-05-20T01:17:44.337Z,0.00
2023-05-20T01:18:43.642Z,0.00
2023-05-20T01:19:43.563Z,0.00
2023-05-20T01:20:43.577Z,0.00
2023-05-20T01:21:43.549Z,0.00
2023-05-20T01:22:43.554Z,0.00
2023-05-20T01:23:44.255Z,0.00
2023-05-20T01:24:43.512Z,0.00
2023-05-20T01:25:43.531Z,0.00
2023-05-20T01:26:43.509Z,0.00
2023-05-20T01:27:43.511Z,0.00
2023-05-20T01:28:43.482Z,0.00
2023-05-20T01:29:43.503Z,0.00
2023-05-20T01:30:44.553Z,0.00
2023-05-20T01:31:43.493Z,0.00
2023-05-20T01:32:43.498Z,0.00
2023-05-20T01:33:43.463Z,0.00
2023-05-20T01:34:43.457Z,0.00
2023-05-20T01:35:43.448Z,0.00
2023-05-20T01:36:43.445Z,0.00
2023-05-20T01:37:43.446Z,0.00
2023-05-20T01:38:43.417Z,0.00
2023-05-20T01:39:43.427Z,0.00
2023-05-20T01:40:43.418Z,0.00
2023-05-20T01:41:43.403Z,0.00
2023-05-20T01:42:43.393Z,0.00
2023-05-20T01:43:43.377Z,0.00
2023-05-20T01:44:43.372Z,0.00
2023-05-20T01:45:43.400Z,0.00
2023-05-20T01:46:43.457Z,0.00
2023-05-20T01:47:43.381Z,0.00
2023-05-20T01:48:43.345Z,0.00
2023-05-20T01:49:43.341Z,0.00
2023-05-20T01:50:43.334Z,0.00
2023-05-20T01:51:43.305Z,0.00
2023-05-20T01:52:43.309Z,0.00
2023-05-20T01:53:43.293Z,0.00
2023-05-20T01:54:43.293Z,0.00
2023-05-20T01:55:43.294Z,0.00
2023-05-20T01:56:43.293Z,0.00
2023-05-20T01:57:43.265Z,0.00
2023-05-20T01:58:43.258Z,0.00
2023-05-20T01:59:43.248Z,0.00
2023-05-20T02:00:43.887Z,0.00
2023-05-20T02:01:43.300Z,0.00
2023-05-20T02:02:43.400Z,0.00
2023-05-20T02:03:43.232Z,0.00
2023-05-20T02:04:43.199Z,0.00
2023-05-20T02:05:43.286Z,0.00
2023-05-20T02:06:43.184Z,0.00
2023-05-20T02:07:43.906Z,0.00
2023-05-20T02:08:43.301Z,0.00
2023-05-20T02:09:43.197Z,0.00
2023-05-20T02:10:43.167Z,0.00
2023-05-20T02:11:43.151Z,0.00
2023-05-20T02:12:43.185Z,0.00
2023-05-20T02:13:43.146Z,0.00
2023-05-20T02:14:43.116Z,0.00
2023-05-20T02:15:43.101Z,0.00
2023-05-20T02:16:43.157Z,0.00
2023-05-20T02:17:43.112Z,0.00
2023-05-20T02:18:43.438Z,0.00
2023-05-20T02:19:43.079Z,0.00
2023-05-20T02:20:43.073Z,0.00
2023-05-20T02:21:43.062Z,0.00
2023-05-20T02:22:43.079Z,0.00
2023-05-20T02:23:43.054Z,0.00
2023-05-20T02:24:43.082Z,0.00
2023-05-20T02:25:43.066Z,0.00
2023-05-20T02:26:43.034Z,0.00
2023-05-20T02:27:43.019Z,0.00
2023-05-20T02:28:43.026Z,0.00
2023-05-20T02:29:43.018Z,0.00
2023-05-20T02:30:43.007Z,0.00
2023-05-20T02:31:43.007Z,0.00
2023-05-20T02:32:42.987Z,0.00
2023-05-20T02:33:43.054Z,0.00
2023-05-20T02:34:43.858Z,0.00
2023-05-20T02:35:42.953Z,0.00
2023-05-20T02:36:42.957Z,0.00
2023-05-20T02:37:42.961Z,0.00
2023-05-20T02:38:42.958Z,0.00
2023-05-20T02:39:42.926Z,0.00
2023-05-20T02:40:42.936Z,0.00
2023-05-20T02:41:42.915Z,0.00
2023-05-20T02:42:42.904Z,0.00
2023-05-20T02:43:42.907Z,0.00
2023-05-20T02:44:43.835Z,0.00
2023-05-20T02:45:43.205Z,0.00
2023-05-20T02:46:42.875Z,0.00
2023-05-20T02:47:42.901Z,0.00
2023-05-20T02:48:42.867Z,0.00
2023-05-20T02:49:42.869Z,0.00
2023-05-20T02:50:42.902Z,0.00
2023-05-20T02:51:42.846Z,0.00
2023-05-20T02:52:42.920Z,0.00
2023-05-20T02:53:42.831Z,0.00
2023-05-20T02:54:42.838Z,0.00
2023-05-20T02:55:42.801Z,0.00
2023-05-20T02:56:42.902Z,0.00
2023-05-20T02:57:43.413Z,0.00
2023-05-20T02:58:42.794Z,0.00
2023-05-20T02:59:42.775Z,4.00
2023-05-20T03:00:42.745Z,4.00
2023-05-20T03:01:42.822Z,4.00
2023-05-20T03:02:42.783Z,0.00
2023-05-20T03:03:42.739Z,4.00
2023-05-20T03:04:42.859Z,4.00
2023-05-20T03:05:42.704Z,4.00
2023-05-20T03:06:44.338Z,4.00
2023-05-20T03:07:42.720Z,8.00
2023-05-20T03:08:42.760Z,8.00
2023-05-20T03:09:42.681Z,4.00
2023-05-20T03:10:42.675Z,8.00
2023-05-20T03:11:42.688Z,12.00
2023-05-20T03:12:42.687Z,12.00
2023-05-20T03:13:42.667Z,12.00
2023-05-20T03:14:42.691Z,12.00
2023-05-20T03:15:42.701Z,16.00
2023-05-20T03:16:42.646Z,16.00
2023-05-20T03:17:42.715Z,20.00
2023-05-20T03:18:42.619Z,20.00
2023-05-20T03:19:42.628Z,20.00
2023-05-20T03:20:42.627Z,24.00
2023-05-20T03:21:42.608Z,24.00
2023-05-20T03:22:42.592Z,24.00
2023-05-20T03:23:42.590Z,28.00
2023-05-20T03:24:44.435Z,28.00
2023-05-20T03:25:42.545Z,32.00
2023-05-20T03:26:42.557Z,36.00
2023-05-20T03:27:42.538Z,40.00
2023-05-20T03:28:42.541Z,44.00
2023-05-20T03:29:42.528Z,52.00
2023-05-20T03:30:42.528Z,56.00
2023-05-20T03:31:42.535Z,64.00
2023-05-20T03:32:42.617Z,68.00
2023-05-20T03:33:42.491Z,80.00
2023-05-20T03:34:42.930Z,84.00
2023-05-20T03:35:42.500Z,92.00
2023-05-20T03:36:42.468Z,100.00
2023-05-20T03:37:43.350Z,108.00
2023-05-20T03:38:42.448Z,124.00
2023-05-20T03:39:42.449Z,136.00
2023-05-20T03:40:42.453Z,148.00
2023-05-20T03:41:43.344Z,160.00
2023-05-20T03:42:42.427Z,172.00
2023-05-20T03:43:42.402Z,184.00
2023-05-20T03:44:42.454Z,192.00
2023-05-20T03:45:42.392Z,208.00
2023-05-20T03:46:42.401Z,212.00
2023-05-20T03:47:42.402Z,228.00
2023-05-20T03:48:42.385Z,240.00
2023-05-20T03:49:42.397Z,240.00
2023-05-20T03:50:42.345Z,248.00
2023-05-20T03:51:42.349Z,248.00
2023-05-20T03:52:42.343Z,256.00
2023-05-20T03:53:42.353Z,264.00
2023-05-20T03:54:42.345Z,272.00
2023-05-20T03:55:42.341Z,280.00
2023-05-20T03:56:42.311Z,284.00
2023-05-20T03:57:42.296Z,280.00
2023-05-20T03:58:42.327Z,264.00
2023-05-20T03:59:42.283Z,272.00
2023-05-20T04:00:42.280Z,292.00
2023-05-20T04:01:42.293Z,312.00
2023-05-20T04:02:42.344Z,308.00
2023-05-20T04:03:42.408Z,304.00
2023-05-20T04:04:42.236Z,312.00
2023-05-20T04:05:42.264Z,316.00
2023-05-20T04:06:42.244Z,332.00
2023-05-20T04:07:42.225Z,376.00
2023-05-20T04:08:42.225Z,376.00
2023-05-20T04:09:42.218Z,372.00
2023-05-20T04:10:42.195Z,408.00
2023-05-20T04:11:42.176Z,404.00
2023-05-20T04:12:42.843Z,428.00
2023-05-20T04:13:42.175Z,428.00
2023-05-20T04:14:42.232Z,412.00
2023-05-20T04:15:42.206Z,392.00
2023-05-20T04:16:42.167Z,472.00
2023-05-20T04:17:42.181Z,512.00
2023-05-20T04:18:42.168Z,520.00
2023-05-20T04:19:42.129Z,532.00
2023-05-20T04:20:42.138Z,496.00
2023-05-20T04:21:42.116Z,492.00
2023-05-20T04:22:42.125Z,488.00
2023-05-20T04:23:42.110Z,496.00
2023-05-20T04:24:42.092Z,524.00
2023-05-20T04:25:42.211Z,524.00
2023-05-20T04:26:42.066Z,532.00
2023-05-20T04:27:42.081Z,548.00
2023-05-20T04:28:42.144Z,572.00
2023-05-20T04:29:42.041Z,600.00
2023-05-20T04:30:42.036Z,572.00
2023-05-20T04:31:42.086Z,596.00
2023-05-20T04:32:42.055Z,656.00
2023-05-20T04:33:42.008Z,664.00
2023-05-20T04:34:42.022Z,652.00
2023-05-20T04:35:42.020Z,608.00
2023-05-20T04:36:41.982Z,584.00
2023-05-20T04:37:42.011Z,608.00
2023-05-20T04:38:41.974Z,660.00
2023-05-20T04:39:41.987Z,696.00
2023-05-20T04:40:41.956Z,684.00
2023-05-20T04:41:41.958Z,612.00
2023-05-20T04:42:41.934Z,640.00
2023-05-20T04:43:42.967Z,680.00
2023-05-20T04:44:42.536Z,672.00
2023-05-20T04:45:42.957Z,644.00
2023-05-20T04:46:41.932Z,648.00
2023-05-20T04:47:41.990Z,636.00
2023-05-20T04:48:41.927Z,672.00
2023-05-20T04:49:41.885Z,716.00
2023-05-20T04:50:41.900Z,736.00
2023-05-20T04:51:41.883Z,764.00
2023-05-20T04:52:41.928Z,768.00
2023-05-20T04:53:43.190Z,736.00
2023-05-20T04:54:41.833Z,752.00
2023-05-20T04:55:41.868Z,792.00
2023-05-20T04:56:41.828Z,728.00
2023-05-20T04:57:42.381Z,740.00
2023-05-20T04:58:41.828Z,764.00
2023-05-20T04:59:41.826Z,780.00
2023-05-20T05:00:41.804Z,776.00
2023-05-20T05:01:41.882Z,804.00
2023-05-20T05:02:42.449Z,800.00
2023-05-20T05:03:41.791Z,840.00
2023-05-20T05:04:41.815Z,928.00
2023-05-20T05:05:41.780Z,1016.00
2023-05-20T05:07:48.737Z,1004.00
2023-05-20T05:08:48.728Z,984.00
2023-05-20T05:09:48.728Z,956.00
2023-05-20T05:10:48.723Z,964.00
2023-05-20T05:11:49.816Z,980.00
2023-05-20T05:12:49.811Z,984.00
2023-05-20T05:13:49.794Z,952.00
2023-05-20T05:14:49.796Z,1064.00
2023-05-20T05:15:49.908Z,1084.00
2023-05-20T05:16:50.610Z,1056.00
2023-05-20T05:17:49.798Z,1028.00
2023-05-20T05:18:49.785Z,992.00
2023-05-20T05:19:49.764Z,988.00
2023-05-20T05:20:51.613Z,988.00
2023-05-20T05:21:49.749Z,968.00
2023-05-20T05:22:49.748Z,960.00
2023-05-20T05:23:49.701Z,1040.00
2023-05-20T05:24:49.708Z,964.00
2023-05-20T05:25:49.693Z,972.00
2023-05-20T05:26:49.685Z,1028.00
2023-05-20T05:27:49.685Z,1032.00
2023-05-20T05:28:49.683Z,1000.00
2023-05-20T05:29:50.654Z,992.00
2023-05-20T05:30:49.655Z,1016.00
2023-05-20T05:31:49.694Z,1048.00
2023-05-20T05:32:49.767Z,1084.00
2023-05-20T05:33:49.638Z,952.00
2023-05-20T05:34:49.645Z,944.00
2023-05-20T05:35:49.656Z,844.00
2023-05-20T05:36:49.718Z,824.00
2023-05-20T05:37:49.635Z,868.00
2023-05-20T05:38:49.586Z,896.00
2023-05-20T05:39:49.603Z,888.00
2023-05-20T05:40:49.581Z,936.00
2023-05-20T05:41:49.565Z,928.00
2023-05-20T05:42:49.559Z,924.00
2023-05-20T05:43:49.555Z,964.00
2023-05-20T05:44:49.565Z,960.00
2023-05-20T05:45:49.558Z,980.00
2023-05-20T05:46:49.560Z,832.00
2023-05-20T05:47:49.596Z,788.00
2023-05-20T05:48:49.507Z,792.00
2023-05-20T05:49:49.525Z,788.00
2023-05-20T05:50:49.494Z,744.00
2023-05-20T05:51:49.497Z,748.00
2023-05-20T05:52:49.471Z,760.00
2023-05-20T05:53:49.498Z,768.00
2023-05-20T05:54:49.450Z,772.00
2023-05-20T05:55:49.451Z,808.00
2023-05-20T05:56:49.472Z,792.00
2023-05-20T05:57:50.438Z,840.00
2023-05-20T05:58:49.460Z,920.00
2023-05-20T05:59:49.437Z,1008.00
2023-05-20T06:00:49.437Z,976.00
2023-05-20T06:01:49.441Z,1040.00
2023-05-20T06:02:49.671Z,1100.00
2023-05-20T06:03:49.453Z,1076.00
2023-05-20T06:04:49.388Z,1168.00
2023-05-20T06:05:49.377Z,1340.00
2023-05-20T06:06:49.373Z,1412.00
2023-05-20T06:07:49.370Z,1448.00
2023-05-20T06:08:49.348Z,1624.00
2023-05-20T06:09:49.347Z,1448.00
2023-05-20T06:10:49.346Z,1440.00
2023-05-20T06:11:49.378Z,1432.00
2023-05-20T06:12:49.326Z,1416.00
2023-05-20T06:13:49.310Z,1640.00
2023-05-20T06:14:49.289Z,1568.00
2023-05-20T06:15:49.275Z,1476.00
2023-05-20T06:16:49.338Z,1296.00
2023-05-20T06:17:49.281Z,1336.00
2023-05-20T06:18:49.325Z,1388.00
2023-05-20T06:19:49.716Z,1404.00
2023-05-20T06:20:49.246Z,1316.00
2023-05-20T06:21:49.228Z,1228.00
2023-05-20T06:22:49.230Z,1248.00
2023-05-20T06:23:49.222Z,1364.00
2023-05-20T06:24:49.228Z,1488.00
2023-05-20T06:25:49.213Z,1528.00
2023-05-20T06:26:49.178Z,1600.00
2023-05-20T06:27:50.181Z,1596.00
2023-05-20T06:28:49.199Z,1524.00
2023-05-20T06:29:49.179Z,1476.00
2023-05-20T06:30:49.234Z,1400.00
2023-05-20T06:31:49.136Z,1500.00
2023-05-20T06:32:49.217Z,1552.00
2023-05-20T06:33:49.161Z,1560.00
2023-05-20T06:34:49.207Z,1624.00
2023-05-20T06:35:49.119Z,1628.00
2023-05-20T06:36:49.197Z,1748.00
2023-05-20T06:37:49.163Z,1812.00
2023-05-20T06:38:49.112Z,1992.00
2023-05-20T06:39:49.682Z,2100.00
2023-05-20T06:40:49.068Z,2096.00
2023-05-20T06:41:49.093Z,2072.00
2023-05-20T06:42:49.622Z,2312.00
2023-05-20T06:43:52.598Z,2536.00
2023-05-20T06:44:49.074Z,2540.00
2023-05-20T06:45:49.069Z,2656.00
2023-05-20T06:46:51.668Z,2668.00
2023-05-20T06:47:49.750Z,2448.00
2023-05-20T06:48:49.020Z,2800.00
2023-05-20T06:49:49.020Z,2548.00
2023-05-20T06:50:48.997Z,2368.00
2023-05-20T06:51:49.082Z,2428.00
2023-05-20T06:52:48.991Z,2344.00
2023-05-20T06:53:48.970Z,2260.00
2023-05-20T06:54:49.635Z,2192.00
2023-05-20T06:55:49.756Z,2316.00
2023-05-20T06:56:48.943Z,2428.00
2023-05-20T06:57:48.941Z,2560.00
2023-05-20T06:58:48.929Z,2712.00
2023-05-20T06:59:48.937Z,3244.00
2023-05-20T07:00:48.913Z,3032.00
2023-05-20T07:01:48.989Z,2852.00
2023-05-20T07:02:48.935Z,3056.00
2023-05-20T07:03:48.937Z,2760.00
2023-05-20T07:04:48.878Z,2904.00
2023-05-20T07:05:49.703Z,2920.00
2023-05-20T07:06:48.863Z,2832.00
2023-05-20T07:07:49.861Z,2884.00
2023-05-20T07:08:51.647Z,2812.00
2023-05-20T07:09:48.847Z,2772.00
2023-05-20T07:10:48.837Z,2740.00
2023-05-20T07:11:48.830Z,2828.00
2023-05-20T07:12:48.825Z,2920.00
2023-05-20T07:13:48.846Z,2824.00
2023-05-20T07:14:50.758Z,2832.00
2023-05-20T07:15:48.826Z,2692.00
2023-05-20T07:16:48.821Z,2756.00
2023-05-20T07:17:48.808Z,2908.00
2023-05-20T07:18:48.789Z,3180.00
2023-05-20T07:19:48.768Z,3484.00
2023-05-20T07:20:48.751Z,3220.00
2023-05-20T07:21:48.760Z,3092.00
2023-05-20T07:22:48.765Z,3416.00
2023-05-20T07:23:48.731Z,3196.00
2023-05-20T07:24:48.725Z,3268.00
2023-05-20T07:25:50.231Z,3040.00
2023-05-20T07:26:48.715Z,3184.00
2023-05-20T07:27:48.702Z,3296.00
2023-05-20T07:28:48.724Z,3468.00
2023-05-20T07:29:48.695Z,3468.00
2023-05-20T07:30:48.669Z,4140.00
2023-05-20T07:31:48.761Z,3512.00
2023-05-20T07:32:48.680Z,3488.00
2023-05-20T07:33:48.640Z,3556.00
2023-05-20T07:34:49.221Z,4052.00
2023-05-20T07:35:48.662Z,4252.00
2023-05-20T07:36:48.636Z,3564.00
2023-05-20T07:37:48.618Z,3272.00
2023-05-20T07:38:57.055Z,3252.00
2023-05-20T07:39:50.595Z,2932.00
2023-05-20T07:40:48.582Z,3076.00
2023-05-20T07:41:49.212Z,3072.00
2023-05-20T07:42:48.599Z,3540.00
2023-05-20T07:43:48.585Z,3532.00
2023-05-20T07:44:48.581Z,3248.00
2023-05-20T07:45:48.617Z,3204.00
2023-05-20T07:46:48.549Z,3392.00
2023-05-20T07:47:48.568Z,3828.00
2023-05-20T07:48:48.549Z,3776.00
2023-05-20T07:49:48.532Z,3164.00
2023-05-20T07:50:48.509Z,3060.00
2023-05-20T07:51:48.496Z,3296.00
2023-05-20T07:53:50.505Z,3064.00
2023-05-20T07:54:48.483Z,3088.00
2023-05-20T07:55:48.484Z,3176.00
2023-05-20T07:56:48.456Z,3060.00
2023-05-20T07:57:48.437Z,3276.00
2023-05-20T07:58:48.468Z,2968.00
2023-05-20T07:59:48.449Z,2740.00
2023-05-20T08:00:48.424Z,3200.00
2023-05-20T08:01:48.507Z,2836.00
2023-05-20T08:02:48.545Z,2628.00
2023-05-20T08:03:48.481Z,2868.00
2023-05-20T08:04:48.402Z,3104.00
2023-05-20T08:05:48.378Z,3404.00
2023-05-20T08:06:48.399Z,3536.00
2023-05-20T08:07:48.370Z,3564.00
2023-05-20T08:08:48.434Z,3564.00
2023-05-20T08:09:48.353Z,3484.00
2023-05-20T08:10:48.349Z,3616.00
2023-05-20T08:11:48.355Z,3376.00
2023-05-20T08:12:48.342Z,3208.00
2023-05-20T08:13:48.342Z,3360.00
2023-05-20T08:14:48.310Z,3480.00
2023-05-20T08:15:48.299Z,3436.00
2023-05-20T08:16:48.381Z,3272.00
2023-05-20T08:17:48.332Z,3416.00
2023-05-20T08:18:48.336Z,3780.00
2023-05-20T08:19:49.149Z,4224.00
2023-05-20T08:20:48.267Z,4408.00
2023-05-20T08:21:48.252Z,4448.00
2023-05-20T08:22:48.250Z,4084.00
2023-05-20T08:23:49.228Z,3920.00
2023-05-20T08:24:48.256Z,3824.00
2023-05-20T08:25:48.233Z,4028.00
2023-05-20T08:26:48.206Z,4544.00
2023-05-20T08:27:48.241Z,5148.00
2023-05-20T08:28:48.229Z,4740.00
2023-05-20T08:29:48.192Z,5196.00
2023-05-20T08:30:48.234Z,4572.00
2023-05-20T08:31:49.730Z,4488.00
2023-05-20T08:32:48.178Z,4484.00
2023-05-20T08:33:48.156Z,4712.00
2023-05-20T08:34:49.150Z,4976.00
2023-05-20T08:35:49.112Z,5296.00
2023-05-20T08:36:48.132Z,5600.00
2023-05-20T08:37:48.252Z,5348.00
2023-05-20T08:38:48.135Z,5496.00
2023-05-20T08:39:48.114Z,5380.00
2023-05-20T08:40:48.094Z,5180.00
2023-05-20T08:41:48.112Z,5160.00
2023-05-20T08:42:50.746Z,5992.00
2023-05-20T08:43:48.088Z,7420.00
2023-05-20T08:44:48.065Z,7708.00
2023-05-20T08:45:48.056Z,7652.00
2023-05-20T08:46:48.120Z,7992.00
2023-05-20T08:47:48.086Z,8628.00
2023-05-20T08:48:48.077Z,8796.00
2023-05-20T08:49:48.066Z,8120.00
2023-05-20T08:50:48.054Z,7588.00
2023-05-20T08:51:48.049Z,7508.00
2023-05-20T08:52:48.016Z,7860.00
2023-05-20T08:53:49.001Z,8672.00
2023-05-20T08:54:48.024Z,9156.00
2023-05-20T08:55:48.005Z,9016.00
2023-05-20T08:56:47.992Z,8248.00
2023-05-20T08:57:47.973Z,8436.00
2023-05-20T08:58:47.957Z,9180.00
2023-05-20T08:59:47.966Z,10524.00
2023-05-20T09:00:47.971Z,9368.00
2023-05-20T09:01:48.048Z,9008.00
2023-05-20T09:02:47.942Z,8044.00
2023-05-20T09:03:47.927Z,8460.00
2023-05-20T09:04:48.002Z,9128.00
2023-05-20T09:05:47.901Z,8228.00
2023-05-20T09:06:47.908Z,8440.00
2023-05-20T09:07:47.924Z,7764.00
2023-05-20T09:08:47.900Z,7796.00
2023-05-20T09:09:47.904Z,8208.00
2023-05-20T09:10:48.906Z,8160.00
2023-05-20T09:11:47.856Z,8828.00
2023-05-20T09:12:47.846Z,9828.00
2023-05-20T09:13:47.865Z,9592.00
2023-05-20T09:14:47.868Z,9616.00
2023-05-20T09:15:47.858Z,7912.00
2023-05-20T09:16:47.844Z,7776.00
2023-05-20T09:17:47.826Z,8624.00
2023-05-20T09:18:47.817Z,8532.00
2023-05-20T09:19:47.789Z,9316.00
2023-05-20T09:20:47.811Z,9260.00
2023-05-20T09:21:47.796Z,9256.00
2023-05-20T09:22:47.780Z,9464.00
2023-05-20T09:23:47.762Z,7964.00
2023-05-20T09:24:47.761Z,8456.00
2023-05-20T09:25:47.752Z,8276.00
2023-05-20T09:26:47.733Z,8112.00
2023-05-20T09:27:47.752Z,7636.00
2023-05-20T09:28:47.750Z,8100.00
2023-05-20T09:29:49.170Z,8808.00
2023-05-20T09:30:47.731Z,8776.00
2023-05-20T09:31:47.765Z,8140.00
2023-05-20T09:32:47.700Z,7044.00
2023-05-20T09:33:47.679Z,6276.00
2023-05-20T09:34:47.662Z,6852.00
2023-05-20T09:35:47.658Z,7820.00
2023-05-20T09:36:47.672Z,6920.00
2023-05-20T09:37:47.703Z,6880.00
2023-05-20T09:38:47.709Z,6672.00
2023-05-20T09:39:47.620Z,6128.00
2023-05-20T09:40:49.162Z,5908.00
2023-05-20T09:41:47.621Z,5552.00
2023-05-20T09:42:47.600Z,5928.00
2023-05-20T09:43:47.607Z,6488.00
2023-05-20T09:44:47.581Z,5532.00
2023-05-20T09:45:47.601Z,5892.00
2023-05-20T09:46:47.570Z,6112.00
2023-05-20T09:47:47.585Z,5796.00
2023-05-20T09:48:47.585Z,5660.00
2023-05-20T09:49:47.570Z,5672.00
2023-05-20T09:50:47.547Z,5612.00
2023-05-20T09:51:47.553Z,5448.00
2023-05-20T09:52:47.562Z,5924.00
2023-05-20T09:53:47.533Z,5356.00
2023-05-20T09:54:47.504Z,5320.00
2023-05-20T09:55:47.552Z,5520.00
2023-05-20T09:56:47.513Z,5832.00
2023-05-20T09:57:47.489Z,6548.00
2023-05-20T09:58:47.499Z,6488.00
2023-05-20T09:59:47.486Z,5924.00
2023-05-20T10:00:47.478Z,5476.00
2023-05-20T10:01:47.493Z,5316.00
2023-05-20T10:02:47.497Z,5120.00
2023-05-20T10:03:47.580Z,5336.00
2023-05-20T10:04:48.231Z,5840.00
2023-05-20T10:05:48.413Z,5604.00
2023-05-20T10:06:47.409Z,5504.00
2023-05-20T10:07:47.399Z,5780.00
2023-05-20T10:08:47.395Z,6252.00
2023-05-20T10:09:47.393Z,6232.00
2023-05-20T10:10:47.391Z,5712.00
2023-05-20T10:11:47.349Z,5768.00
2023-05-20T10:12:49.270Z,5152.00
2023-05-20T10:13:47.403Z,4848.00
2023-05-20T10:14:47.339Z,4900.00
2023-05-20T10:15:47.357Z,5332.00
2023-05-20T10:16:47.343Z,5060.00
2023-05-20T10:17:47.347Z,5032.00
2023-05-20T10:18:47.329Z,5032.00
2023-05-20T10:19:47.301Z,5024.00
2023-05-20T10:20:47.287Z,5252.00
2023-05-20T10:21:47.292Z,5008.00
2023-05-20T10:22:47.272Z,4920.00
2023-05-20T10:23:47.287Z,4780.00
2023-05-20T10:24:47.411Z,5008.00
2023-05-20T10:25:47.282Z,4992.00
2023-05-20T10:26:47.800Z,4956.00
2023-05-20T10:27:47.236Z,5076.00
2023-05-20T10:28:48.195Z,4956.00
2023-05-20T10:30:47.208Z,4624.00
2023-05-20T10:31:47.229Z,4740.00
2023-05-20T10:32:47.289Z,4712.00
2023-05-20T10:33:47.306Z,4696.00
2023-05-20T10:34:47.165Z,4792.00
2023-05-20T10:35:47.176Z,4660.00
2023-05-20T10:36:47.150Z,4772.00
2023-05-20T10:37:47.153Z,5196.00
2023-05-20T10:38:47.142Z,5628.00
2023-05-20T10:39:47.143Z,6124.00
2023-05-20T10:40:47.125Z,6712.00
2023-05-20T10:41:47.111Z,6500.00
2023-05-20T10:42:48.114Z,6196.00
2023-05-20T10:43:47.105Z,6364.00
2023-05-20T10:44:47.098Z,6388.00
2023-05-20T10:45:47.119Z,6076.00
2023-05-20T10:47:06.692Z,6252.00
2023-05-20T10:47:49.100Z,6296.00
2023-05-20T10:48:47.114Z,6192.00
2023-05-20T10:49:47.059Z,6172.00
2023-05-20T10:50:47.037Z,6536.00
2023-05-20T10:51:47.046Z,6644.00
2023-05-20T10:52:47.029Z,6756.00
2023-05-20T10:53:47.800Z,7236.00
2023-05-20T10:54:50.193Z,6940.00
2023-05-20T10:55:47.000Z,6708.00
2023-05-20T10:56:48.820Z,6680.00
2023-05-20T10:57:46.987Z,7208.00
2023-05-20T10:58:49.827Z,7848.00
2023-05-20T10:59:47.818Z,7732.00
2023-05-20T11:00:47.989Z,7316.00
2023-05-20T11:01:46.982Z,7448.00
2023-05-20T11:02:48.119Z,7544.00
2023-05-20T11:03:49.883Z,8064.00
2023-05-20T11:04:46.925Z,8800.00
2023-05-20T11:05:46.897Z,10372.00
2023-05-20T11:06:46.917Z,10920.00
2023-05-20T11:07:46.910Z,10824.00
2023-05-20T11:08:46.905Z,9328.00
2023-05-20T11:09:46.881Z,10244.00
2023-05-20T11:10:47.982Z,9836.00
2023-05-20T11:11:48.723Z,9456.00
2023-05-20T11:12:47.303Z,10064.00
2023-05-20T11:13:46.851Z,10268.00
2023-05-20T11:14:46.853Z,10200.00
2023-05-20T11:15:47.711Z,9104.00
2023-05-20T11:16:46.858Z,8340.00
2023-05-20T11:17:46.857Z,7848.00
2023-05-20T11:18:46.815Z,7556.00
2023-05-20T11:19:46.832Z,7148.00
2023-05-20T11:20:46.837Z,7048.00
2023-05-20T11:21:46.791Z,7272.00
2023-05-20T11:22:46.776Z,7244.00
2023-05-20T11:23:47.304Z,7160.00
2023-05-20T11:24:46.764Z,7200.00
2023-05-20T11:25:46.761Z,6832.00
2023-05-20T11:26:46.753Z,6408.00
2023-05-20T11:27:46.765Z,7020.00
2023-05-20T11:28:46.739Z,7236.00
2023-05-20T11:29:46.751Z,7088.00
2023-05-20T11:30:46.704Z,7652.00
2023-05-20T11:31:46.754Z,7696.00
2023-05-20T11:32:46.815Z,6648.00
2023-05-20T11:33:47.720Z,6224.00
2023-05-20T11:34:46.724Z,6164.00
2023-05-20T11:35:46.686Z,6372.00
2023-05-20T11:36:46.662Z,6960.00
2023-05-20T11:37:46.649Z,6740.00
2023-05-20T11:38:46.645Z,6664.00
2023-05-20T11:39:47.300Z,7200.00
2023-05-20T11:40:51.007Z,7656.00
2023-05-20T11:41:48.636Z,7460.00
2023-05-20T11:42:46.621Z,6816.00
2023-05-20T11:43:46.611Z,6608.00
2023-05-20T11:44:46.592Z,6496.00
2023-05-20T11:45:46.634Z,6744.00
2023-05-20T11:46:46.595Z,7612.00
2023-05-20T11:47:47.253Z,8648.00
2023-05-20T11:48:46.563Z,7604.00
2023-05-20T11:49:46.591Z,6804.00
2023-05-20T11:50:46.583Z,6340.00
2023-05-20T11:51:47.229Z,6104.00
2023-05-20T11:52:46.538Z,6344.00
2023-05-20T11:53:46.533Z,6712.00
2023-05-20T11:54:47.268Z,7184.00
2023-05-20T11:55:46.512Z,7516.00
2023-05-20T11:56:46.520Z,7892.00
2023-05-20T11:57:46.492Z,7360.00
2023-05-20T11:58:46.543Z,7272.00
2023-05-20T11:59:46.488Z,7100.00
2023-05-20T12:00:51.660Z,7260.00
2023-05-20T12:01:48.465Z,7648.00
2023-05-20T12:02:46.520Z,7388.00
2023-05-20T12:03:46.526Z,7200.00
2023-05-20T12:04:46.561Z,7896.00
2023-05-20T12:05:46.436Z,8472.00
2023-05-20T12:06:46.425Z,8384.00
2023-05-20T12:07:46.412Z,8508.00
2023-05-20T12:08:46.425Z,8568.00
2023-05-20T12:09:46.399Z,9568.00
2023-05-20T12:10:46.401Z,9976.00
2023-05-20T12:11:47.326Z,9568.00
2023-05-20T12:12:46.376Z,10392.00
2023-05-20T12:13:46.385Z,11392.00
2023-05-20T12:14:46.355Z,10904.00
2023-05-20T12:15:46.406Z,10512.00
2023-05-20T12:16:46.353Z,11112.00
2023-05-20T12:17:46.354Z,10572.00
2023-05-20T12:18:46.345Z,10336.00
2023-05-20T12:19:46.373Z,10732.00
2023-05-20T12:20:46.368Z,10584.00
2023-05-20T12:21:46.312Z,9472.00
2023-05-20T12:22:46.291Z,10372.00
2023-05-20T12:23:46.809Z,10560.00
2023-05-20T12:24:46.285Z,10432.00
2023-05-20T12:25:47.268Z,10192.00
2023-05-20T12:26:46.280Z,10456.00
2023-05-20T12:27:46.250Z,11152.00
2023-05-20T12:28:48.290Z,11180.00
2023-05-20T12:29:46.269Z,10812.00
2023-05-20T12:30:46.245Z,10332.00
2023-05-20T12:31:46.340Z,9556.00